sensor_id;sensor_type;location;lat;lon;timestamp;pressure;altitude;pressure_sealevel;temperature;humidity
20115;BME280;10218;42.874;25.320;2023-12-29T00:02:10;97693.09;;;3.80;100.00
20115;BME280;10218;42.874;25.320;2023-12-29T00:04:39;97696.38;;;3.95;100.00
20115;BME280;10218;42.874;25.320;2023-12-29T00:07:06;97690.13;;;4.18;100.00
20115;BME280;10218;42.874;25.320;2023-12-29T00:09:33;97684.25;;;4.14;100.00
20115;BME280;10218;42.874;25.320;2023-12-29T00:12:08;97687.25;;;4.21;100.00
20115;BME280;10218;42.874;25.320;2023-12-29T00:14:41;97689.66;;;4.13;100.00
20115;BME280;10218;42.874;25.320;2023-12-29T00:17:08;97691.56;;;4.55;100.00
20115;BME280;10218;42.874;25.320;2023-12-29T00:19:37;97687.72;;;4.37;100.00
20115;BME280;10218;42.874;25.320;2023-12-29T00:22:04;97687.25;;;4.10;100.00
20115;BME280;10218;42.874;25.320;2023-12-29T00:24:31;97689.13;;;4.86;100.00
20115;BME280;10218;42.874;25.320;2023-12-29T00:26:59;97695.34;;;4.96;100.00
20115;BME280;10218;42.874;25.320;2023-12-29T00:29:27;97694.94;;;4.24;100.00
20115;BME280;10218;42.874;25.320;2023-12-29T00:32:00;97702.00;;;4.79;100.00
20115;BME280;10218;42.874;25.320;2023-12-29T00:34:30;97707.91;;;4.60;100.00
20115;BME280;10218;42.874;25.320;2023-12-29T00:37:00;97708.38;;;3.99;100.00
20115;BME280;10218;42.874;25.320;2023-12-29T00:39:27;97711.44;;;3.59;100.00
20115;BME280;10218;42.874;25.320;2023-12-29T00:42:05;97701.91;;;4.03;100.00
20115;BME280;10218;42.874;25.320;2023-12-29T00:44:34;97696.50;;;3.47;100.00
20115;BME280;10218;42.874;25.320;2023-12-29T00:47:02;97711.34;;;3.37;100.00
20115;BME280;10218;42.874;25.320;2023-12-29T00:49:29;97709.81;;;3.45;100.00
20115;BME280;10218;42.874;25.320;2023-12-29T00:51:58;97714.31;;;3.67;100.00
20115;BME280;10218;42.874;25.320;2023-12-29T00:54:26;97724.00;;;3.44;100.00
20115;BME280;10218;42.874;25.320;2023-12-29T00:56:54;97716.56;;;3.50;100.00
20115;BME280;10218;42.874;25.320;2023-12-29T00:59:22;97711.53;;;3.58;100.00
20115;BME280;10218;42.874;25.320;2023-12-29T01:01:50;97720.28;;;3.23;100.00
20115;BME280;10218;42.874;25.320;2023-12-29T01:04:18;97713.72;;;3.29;100.00
20115;BME280;10218;42.874;25.320;2023-12-29T01:06:48;97710.34;;;3.27;100.00
20115;BME280;10218;42.874;25.320;2023-12-29T01:09:16;97701.91;;;3.22;100.00
20115;BME280;10218;42.874;25.320;2023-12-29T01:11:44;97699.81;;;3.38;100.00
20115;BME280;10218;42.874;25.320;2023-12-29T01:14:13;97700.56;;;3.40;100.00
20115;BME280;10218;42.874;25.320;2023-12-29T01:16:41;97697.03;;;3.63;100.00
20115;BME280;10218;42.874;25.320;2023-12-29T01:19:09;97690.69;;;3.77;100.00
20115;BME280;10218;42.874;25.320;2023-12-29T01:21:38;97696.97;;;3.98;100.00
20115;BME280;10218;42.874;25.320;2023-12-29T01:24:05;97692.91;;;4.05;100.00
20115;BME280;10218;42.874;25.320;2023-12-29T01:26:38;97695.16;;;3.87;100.00
20115;BME280;10218;42.874;25.320;2023-12-29T01:29:07;97695.84;;;3.78;100.00
20115;BME280;10218;42.874;25.320;2023-12-29T01:31:34;97698.22;;;3.59;100.00
20115;BME280;10218;42.874;25.320;2023-12-29T01:34:01;97695.44;;;3.50;100.00
20115;BME280;10218;42.874;25.320;2023-12-29T01:36:29;97692.91;;;3.48;100.00
20115;BME280;10218;42.874;25.320;2023-12-29T01:38:56;97696.50;;;3.47;100.00
20115;BME280;10218;42.874;25.320;2023-12-29T01:41:24;97676.13;;;3.25;100.00
20115;BME280;10218;42.874;25.320;2023-12-29T01:46:26;97687.81;;;3.10;100.00
20115;BME280;10218;42.874;25.320;2023-12-29T01:48:57;97684.53;;;3.30;100.00
20115;BME280;10218;42.874;25.320;2023-12-29T01:51:26;97682.88;;;3.29;100.00
20115;BME280;10218;42.874;25.320;2023-12-29T01:53:55;97692.88;;;3.13;100.00
20115;BME280;10218;42.874;25.320;2023-12-29T01:56:25;97674.00;;;3.07;100.00
20115;BME280;10218;42.874;25.320;2023-12-29T01:58:55;97688.97;;;3.19;100.00
20115;BME280;10218;42.874;25.320;2023-12-29T02:01:25;97675.31;;;3.25;100.00
20115;BME280;10218;42.874;25.320;2023-12-29T02:03:54;97674.75;;;3.09;100.00
20115;BME280;10218;42.874;25.320;2023-12-29T02:06:21;97668.72;;;3.41;100.00
20115;BME280;10218;42.874;25.320;2023-12-29T02:08:51;97671.66;;;3.61;100.00
20115;BME280;10218;42.874;25.320;2023-12-29T02:11:19;97673.00;;;3.55;100.00
20115;BME280;10218;42.874;25.320;2023-12-29T02:13:47;97673.50;;;3.82;100.00
20115;BME280;10218;42.874;25.320;2023-12-29T02:19:07;97682.78;;;3.42;100.00
20115;BME280;10218;42.874;25.320;2023-12-29T02:21:36;97674.75;;;3.09;100.00
20115;BME280;10218;42.874;25.320;2023-12-29T02:24:05;97667.53;;;3.11;100.00
20115;BME280;10218;42.874;25.320;2023-12-29T02:26:34;97671.03;;;3.35;100.00
20115;BME280;10218;42.874;25.320;2023-12-29T02:29:05;97666.22;;;3.40;100.00
20115;BME280;10218;42.874;25.320;2023-12-29T02:31:38;97664.41;;;3.06;100.00
20115;BME280;10218;42.874;25.320;2023-12-29T02:34:10;97660.13;;;3.16;100.00
20115;BME280;10218;42.874;25.320;2023-12-29T02:36:40;97648.16;;;3.23;100.00
20115;BME280;10218;42.874;25.320;2023-12-29T02:39:10;97646.06;;;3.39;100.00
20115;BME280;10218;42.874;25.320;2023-12-29T02:41:38;97647.56;;;3.30;100.00
20115;BME280;10218;42.874;25.320;2023-12-29T02:44:06;97648.94;;;3.47;100.00
20115;BME280;10218;42.874;25.320;2023-12-29T02:46:33;97650.84;;;3.34;100.00
20115;BME280;10218;42.874;25.320;2023-12-29T02:49:00;97651.28;;;3.28;100.00
20115;BME280;10218;42.874;25.320;2023-12-29T02:51:27;97646.50;;;3.33;100.00
20115;BME280;10218;42.874;25.320;2023-12-29T02:53:54;97638.37;;;3.47;100.00
20115;BME280;10218;42.874;25.320;2023-12-29T02:56:21;97639.56;;;3.43;100.00
20115;BME280;10218;42.874;25.320;2023-12-29T02:58:49;97632.78;;;3.17;100.00
20115;BME280;10218;42.874;25.320;2023-12-29T03:01:16;97640.63;;;3.29;100.00
20115;BME280;10218;42.874;25.320;2023-12-29T03:03:44;97641.28;;;3.20;100.00
20115;BME280;10218;42.874;25.320;2023-12-29T03:06:12;97639.13;;;3.14;100.00
20115;BME280;10218;42.874;25.320;2023-12-29T03:08:39;97646.25;;;3.25;100.00
20115;BME280;10218;42.874;25.320;2023-12-29T03:11:06;97644.22;;;2.93;100.00
20115;BME280;10218;42.874;25.320;2023-12-29T03:13:33;97646.41;;;3.11;100.00
20115;BME280;10218;42.874;25.320;2023-12-29T03:16:01;97648.34;;;3.09;100.00
20115;BME280;10218;42.874;25.320;2023-12-29T03:18:30;97651.72;;;2.87;100.00
20115;BME280;10218;42.874;25.320;2023-12-29T03:20:57;97638.94;;;2.93;100.00
20115;BME280;10218;42.874;25.320;2023-12-29T03:23:24;97642.78;;;3.00;100.00
20115;BME280;10218;42.874;25.320;2023-12-29T03:25:51;97649.81;;;3.13;100.00
20115;BME280;10218;42.874;25.320;2023-12-29T03:28:18;97635.19;;;3.20;100.00
20115;BME280;10218;42.874;25.320;2023-12-29T03:30:46;97634.59;;;2.92;100.00
20115;BME280;10218;42.874;25.320;2023-12-29T03:33:15;97643.28;;;3.06;100.00
20115;BME280;10218;42.874;25.320;2023-12-29T03:35:42;97650.53;;;3.15;100.00
20115;BME280;10218;42.874;25.320;2023-12-29T03:38:09;97643.66;;;2.77;100.00
20115;BME280;10218;42.874;25.320;2023-12-29T03:40:36;97636.16;;;3.19;100.00
20115;BME280;10218;42.874;25.320;2023-12-29T03:43:03;97650.69;;;2.89;100.00
20115;BME280;10218;42.874;25.320;2023-12-29T03:45:30;97603.81;;;2.69;100.00
20115;BME280;10218;42.874;25.320;2023-12-29T03:47:58;97639.88;;;2.92;100.00
20115;BME280;10218;42.874;25.320;2023-12-29T03:50:25;97640.66;;;2.82;100.00
20115;BME280;10218;42.874;25.320;2023-12-29T03:52:53;97634.94;;;2.88;100.00
20115;BME280;10218;42.874;25.320;2023-12-29T03:55:20;97636.91;;;2.73;100.00
20115;BME280;10218;42.874;25.320;2023-12-29T03:57:47;97627.56;;;2.80;100.00
20115;BME280;10218;42.874;25.320;2023-12-29T04:00:15;97639.22;;;2.78;100.00
20115;BME280;10218;42.874;25.320;2023-12-29T04:02:43;97626.94;;;2.89;100.00
20115;BME280;10218;42.874;25.320;2023-12-29T04:05:11;97631.06;;;2.81;100.00
20115;BME280;10218;42.874;25.320;2023-12-29T04:07:39;97639.63;;;2.95;100.00
20115;BME280;10218;42.874;25.320;2023-12-29T04:10:07;97627.28;;;2.96;100.00
20115;BME280;10218;42.874;25.320;2023-12-29T04:12:35;97647.63;;;3.07;100.00
20115;BME280;10218;42.874;25.320;2023-12-29T04:15:04;97653.34;;;2.77;100.00
20115;BME280;10218;42.874;25.320;2023-12-29T04:17:31;97650.88;;;2.86;100.00
20115;BME280;10218;42.874;25.320;2023-12-29T04:19:59;97645.00;;;2.59;100.00
20115;BME280;10218;42.874;25.320;2023-12-29T04:22:26;97643.50;;;2.55;100.00
20115;BME280;10218;42.874;25.320;2023-12-29T04:24:54;97647.41;;;2.62;100.00
20115;BME280;10218;42.874;25.320;2023-12-29T04:27:22;97643.97;;;2.12;100.00
20115;BME280;10218;42.874;25.320;2023-12-29T04:29:49;97637.81;;;2.25;100.00
20115;BME280;10218;42.874;25.320;2023-12-29T04:32:17;97634.22;;;2.26;100.00
20115;BME280;10218;42.874;25.320;2023-12-29T04:34:45;97625.88;;;2.32;100.00
20115;BME280;10218;42.874;25.320;2023-12-29T04:37:13;97626.50;;;2.35;100.00
20115;BME280;10218;42.874;25.320;2023-12-29T04:39:42;97642.81;;;2.53;100.00
20115;BME280;10218;42.874;25.320;2023-12-29T04:42:10;97649.03;;;2.52;100.00
20115;BME280;10218;42.874;25.320;2023-12-29T04:44:39;97656.34;;;2.72;100.00
20115;BME280;10218;42.874;25.320;2023-12-29T04:47:06;97654.47;;;2.62;100.00
20115;BME280;10218;42.874;25.320;2023-12-29T04:49:33;97653.69;;;2.72;100.00
20115;BME280;10218;42.874;25.320;2023-12-29T04:52:00;97648.69;;;2.56;100.00
20115;BME280;10218;42.874;25.320;2023-12-29T04:54:28;97660.28;;;2.54;100.00
20115;BME280;10218;42.874;25.320;2023-12-29T04:56:56;97658.53;;;2.42;100.00
20115;BME280;10218;42.874;25.320;2023-12-29T04:59:24;97648.00;;;2.42;100.00
20115;BME280;10218;42.874;25.320;2023-12-29T05:01:51;97650.56;;;2.31;100.00
20115;BME280;10218;42.874;25.320;2023-12-29T05:04:18;97662.13;;;2.41;100.00
20115;BME280;10218;42.874;25.320;2023-12-29T05:06:46;97663.81;;;2.42;100.00
20115;BME280;10218;42.874;25.320;2023-12-29T05:09:13;97670.63;;;2.81;100.00
20115;BME280;10218;42.874;25.320;2023-12-29T05:11:40;97672.94;;;2.85;100.00
20115;BME280;10218;42.874;25.320;2023-12-29T05:14:08;97678.97;;;2.64;100.00
20115;BME280;10218;42.874;25.320;2023-12-29T05:16:36;97676.81;;;2.69;100.00
20115;BME280;10218;42.874;25.320;2023-12-29T05:19:03;97675.91;;;2.57;100.00
20115;BME280;10218;42.874;25.320;2023-12-29T05:21:32;97684.03;;;2.54;100.00
20115;BME280;10218;42.874;25.320;2023-12-29T05:24:00;97675.09;;;2.44;100.00
20115;BME280;10218;42.874;25.320;2023-12-29T05:26:27;97679.88;;;2.26;100.00
20115;BME280;10218;42.874;25.320;2023-12-29T05:28:57;97677.94;;;2.53;100.00
20115;BME280;10218;42.874;25.320;2023-12-29T05:31:25;97682.94;;;2.33;100.00
20115;BME280;10218;42.874;25.320;2023-12-29T05:33:52;97691.56;;;2.35;100.00
20115;BME280;10218;42.874;25.320;2023-12-29T05:36:19;97700.69;;;2.54;100.00
20115;BME280;10218;42.874;25.320;2023-12-29T05:38:46;97707.94;;;2.27;100.00
20115;BME280;10218;42.874;25.320;2023-12-29T05:41:14;97707.53;;;1.95;100.00
20115;BME280;10218;42.874;25.320;2023-12-29T05:43:41;97692.03;;;2.03;100.00
20115;BME280;10218;42.874;25.320;2023-12-29T05:46:10;97706.56;;;1.84;100.00
20115;BME280;10218;42.874;25.320;2023-12-29T05:48:40;97709.97;;;1.86;100.00
20115;BME280;10218;42.874;25.320;2023-12-29T05:51:12;97713.63;;;2.08;100.00
20115;BME280;10218;42.874;25.320;2023-12-29T05:53:40;97702.69;;;2.02;100.00
20115;BME280;10218;42.874;25.320;2023-12-29T05:56:13;97711.62;;;1.99;100.00
20115;BME280;10218;42.874;25.320;2023-12-29T05:58:41;97706.34;;;2.25;100.00
20115;BME280;10218;42.874;25.320;2023-12-29T06:01:10;97699.59;;;2.21;100.00
20115;BME280;10218;42.874;25.320;2023-12-29T06:03:37;97706.25;;;2.26;100.00
20115;BME280;10218;42.874;25.320;2023-12-29T06:06:05;97706.87;;;2.30;100.00
20115;BME280;10218;42.874;25.320;2023-12-29T06:08:32;97692.81;;;2.42;100.00
20115;BME280;10218;42.874;25.320;2023-12-29T06:10:59;97705.34;;;2.51;100.00
20115;BME280;10218;42.874;25.320;2023-12-29T06:13:27;97706.00;;;2.42;100.00
20115;BME280;10218;42.874;25.320;2023-12-29T06:15:54;97699.22;;;2.63;100.00
20115;BME280;10218;42.874;25.320;2023-12-29T06:18:23;97711.56;;;2.86;100.00
20115;BME280;10218;42.874;25.320;2023-12-29T06:20:50;97715.66;;;2.90;100.00
20115;BME280;10218;42.874;25.320;2023-12-29T06:23:17;97714.81;;;2.90;100.00
20115;BME280;10218;42.874;25.320;2023-12-29T06:25:45;97712.47;;;3.22;100.00
20115;BME280;10218;42.874;25.320;2023-12-29T06:28:12;97710.19;;;3.17;100.00
20115;BME280;10218;42.874;25.320;2023-12-29T06:30:39;97698.38;;;3.10;100.00
20115;BME280;10218;42.874;25.320;2023-12-29T06:33:07;97703.00;;;3.19;100.00
20115;BME280;10218;42.874;25.320;2023-12-29T06:35:34;97704.16;;;2.68;100.00
20115;BME280;10218;42.874;25.320;2023-12-29T06:38:01;97711.56;;;2.86;100.00
20115;BME280;10218;42.874;25.320;2023-12-29T06:40:29;97701.63;;;2.90;100.00
20115;BME280;10218;42.874;25.320;2023-12-29T06:42:56;97675.81;;;2.82;100.00
20115;BME280;10218;42.874;25.320;2023-12-29T06:45:23;97705.94;;;2.67;100.00
20115;BME280;10218;42.874;25.320;2023-12-29T06:47:51;97699.63;;;2.93;100.00
20115;BME280;10218;42.874;25.320;2023-12-29T06:50:18;97707.31;;;2.96;100.00
20115;BME280;10218;42.874;25.320;2023-12-29T06:52:46;97705.00;;;3.16;100.00
20115;BME280;10218;42.874;25.320;2023-12-29T06:55:15;97710.34;;;3.27;100.00
20115;BME280;10218;42.874;25.320;2023-12-29T06:57:43;97708.19;;;3.32;100.00
20115;BME280;10218;42.874;25.320;2023-12-29T07:00:10;97693.50;;;4.20;100.00
20115;BME280;10218;42.874;25.320;2023-12-29T07:02:38;97708.34;;;4.88;100.00
20115;BME280;10218;42.874;25.320;2023-12-29T07:05:07;97711.62;;;5.55;100.00
20115;BME280;10218;42.874;25.320;2023-12-29T07:07:37;97723.94;;;7.86;100.00
20115;BME280;10218;42.874;25.320;2023-12-29T07:10:05;97716.91;;;7.95;100.00
20115;BME280;10218;42.874;25.320;2023-12-29T07:12:33;97720.50;;;8.23;100.00
20115;BME280;10218;42.874;25.320;2023-12-29T07:15:01;97722.28;;;9.06;92.79
20115;BME280;10218;42.874;25.320;2023-12-29T07:17:31;97718.47;;;7.40;100.00
20115;BME280;10218;42.874;25.320;2023-12-29T07:20:00;97717.06;;;8.49;96.52
20115;BME280;10218;42.874;25.320;2023-12-29T07:22:27;97717.22;;;10.18;76.10
20115;BME280;10218;42.874;25.320;2023-12-29T07:24:54;97715.53;;;11.11;67.00
20115;BME280;10218;42.874;25.320;2023-12-29T07:27:21;97718.31;;;12.65;55.51
20115;BME280;10218;42.874;25.320;2023-12-29T07:29:49;97712.53;;;11.06;64.50
20115;BME280;10218;42.874;25.320;2023-12-29T07:32:18;97710.34;;;11.09;57.05
20115;BME280;10218;42.874;25.320;2023-12-29T07:34:46;97704.91;;;11.35;56.52
20115;BME280;10218;42.874;25.320;2023-12-29T07:37:14;97703.25;;;12.56;55.61
20115;BME280;10218;42.874;25.320;2023-12-29T07:39:51;97718.16;;;11.03;60.28
20115;BME280;10218;42.874;25.320;2023-12-29T07:42:19;97708.28;;;11.53;59.44
20115;BME280;10218;42.874;25.320;2023-12-29T07:44:46;97719.91;;;13.37;53.76
20115;BME280;10218;42.874;25.320;2023-12-29T07:47:13;97713.69;;;13.37;49.76
20115;BME280;10218;42.874;25.320;2023-12-29T07:49:41;97724.09;;;13.40;49.71
20115;BME280;10218;42.874;25.320;2023-12-29T07:52:09;97720.78;;;13.83;48.79
20115;BME280;10218;42.874;25.320;2023-12-29T07:54:36;97698.03;;;14.54;47.58
20115;BME280;10218;42.874;25.320;2023-12-29T07:57:04;97723.81;;;15.22;45.97
20115;BME280;10218;42.874;25.320;2023-12-29T07:59:31;97713.87;;;13.89;48.27
20115;BME280;10218;42.874;25.320;2023-12-29T08:01:58;97710.75;;;13.77;49.09
20115;BME280;10218;42.874;25.320;2023-12-29T08:04:26;97720.31;;;13.80;47.31
20115;BME280;10218;42.874;25.320;2023-12-29T08:06:53;97713.69;;;15.24;45.45
20115;BME280;10218;42.874;25.320;2023-12-29T08:09:21;97711.38;;;16.35;42.83
20115;BME280;10218;42.874;25.320;2023-12-29T08:11:49;97721.81;;;15.45;45.05
20115;BME280;10218;42.874;25.320;2023-12-29T08:14:16;97710.91;;;16.81;42.67
20115;BME280;10218;42.874;25.320;2023-12-29T08:16:44;97721.81;;;17.00;41.54
20115;BME280;10218;42.874;25.320;2023-12-29T08:19:11;97721.78;;;19.72;37.01
20115;BME280;10218;42.874;25.320;2023-12-29T08:21:39;97716.00;;;18.25;37.49
20115;BME280;10218;42.874;25.320;2023-12-29T08:24:06;97728.34;;;19.51;37.08
20115;BME280;10218;42.874;25.320;2023-12-29T08:26:34;97722.09;;;19.44;37.15
20115;BME280;10218;42.874;25.320;2023-12-29T08:29:01;97720.00;;;19.59;36.27
20115;BME280;10218;42.874;25.320;2023-12-29T08:31:28;97718.97;;;18.63;36.92
20115;BME280;10218;42.874;25.320;2023-12-29T08:33:56;97710.84;;;20.23;35.42
20115;BME280;10218;42.874;25.320;2023-12-29T08:36:23;97713.56;;;20.23;34.84
20115;BME280;10218;42.874;25.320;2023-12-29T08:38:50;97715.53;;;20.09;34.36
20115;BME280;10218;42.874;25.320;2023-12-29T08:41:20;97713.50;;;19.98;34.72
20115;BME280;10218;42.874;25.320;2023-12-29T08:43:47;97711.88;;;18.62;35.80
20115;BME280;10218;42.874;25.320;2023-12-29T08:46:14;97707.19;;;21.94;32.81
20115;BME280;10218;42.874;25.320;2023-12-29T08:48:41;97708.91;;;22.07;32.14
20115;BME280;10218;42.874;25.320;2023-12-29T08:51:08;97712.88;;;20.34;33.77
20115;BME280;10218;42.874;25.320;2023-12-29T08:53:37;97685.03;;;19.82;33.58
20115;BME280;10218;42.874;25.320;2023-12-29T08:56:04;97705.06;;;20.44;33.38
20115;BME280;10218;42.874;25.320;2023-12-29T08:58:31;97702.47;;;20.80;32.75
20115;BME280;10218;42.874;25.320;2023-12-29T09:00:58;97698.97;;;21.34;32.30
20115;BME280;10218;42.874;25.320;2023-12-29T09:03:26;97697.03;;;20.99;33.28
20115;BME280;10218;42.874;25.320;2023-12-29T09:05:53;97682.72;;;20.91;33.38
20115;BME280;10218;42.874;25.320;2023-12-29T09:08:21;97694.13;;;21.55;31.93
20115;BME280;10218;42.874;25.320;2023-12-29T09:10:48;97694.94;;;23.26;30.62
20115;BME280;10218;42.874;25.320;2023-12-29T09:13:15;97692.13;;;24.96;28.33
20115;BME280;10218;42.874;25.320;2023-12-29T09:15:42;97690.94;;;22.82;30.13
20115;BME280;10218;42.874;25.320;2023-12-29T09:18:10;97694.03;;;22.97;30.62
20115;BME280;10218;42.874;25.320;2023-12-29T09:20:37;97690.97;;;24.59;29.05
20115;BME280;10218;42.874;25.320;2023-12-29T09:23:04;97689.00;;;22.25;31.22
20115;BME280;10218;42.874;25.320;2023-12-29T09:25:32;97695.25;;;23.65;30.33
20115;BME280;10218;42.874;25.320;2023-12-29T09:27:59;97699.06;;;23.40;31.20
20115;BME280;10218;42.874;25.320;2023-12-29T09:30:26;97697.69;;;24.06;28.92
20115;BME280;10218;42.874;25.320;2023-12-29T09:32:54;97698.03;;;22.07;31.54
20115;BME280;10218;42.874;25.320;2023-12-29T09:35:21;97693.56;;;23.00;30.24
20115;BME280;10218;42.874;25.320;2023-12-29T09:37:48;97683.94;;;24.96;27.34
20115;BME280;10218;42.874;25.320;2023-12-29T09:40:16;97687.19;;;26.88;26.34
20115;BME280;10218;42.874;25.320;2023-12-29T09:42:43;97688.22;;;27.18;26.17
20115;BME280;10218;42.874;25.320;2023-12-29T09:45:13;97690.03;;;26.34;26.71
20115;BME280;10218;42.874;25.320;2023-12-29T09:47:42;97687.97;;;27.67;24.99
20115;BME280;10218;42.874;25.320;2023-12-29T09:50:12;97677.31;;;25.31;26.38
20115;BME280;10218;42.874;25.320;2023-12-29T09:52:40;97688.78;;;27.62;24.74
20115;BME280;10218;42.874;25.320;2023-12-29T09:55:09;97686.50;;;25.25;26.84
20115;BME280;10218;42.874;25.320;2023-12-29T09:57:40;97674.19;;;27.57;24.37
20115;BME280;10218;42.874;25.320;2023-12-29T10:00:11;97675.59;;;26.75;25.19
20115;BME280;10218;42.874;25.320;2023-12-29T10:02:39;97668.69;;;25.61;25.36
20115;BME280;10218;42.874;25.320;2023-12-29T10:05:07;97663.63;;;26.23;24.81
20115;BME280;10218;42.874;25.320;2023-12-29T10:07:37;97673.41;;;23.65;26.80
20115;BME280;10218;42.874;25.320;2023-12-29T10:10:14;97665.28;;;25.32;25.58
20115;BME280;10218;42.874;25.320;2023-12-29T10:12:44;97659.31;;;26.64;24.29
20115;BME280;10218;42.874;25.320;2023-12-29T10:15:19;97655.84;;;26.78;23.99
20115;BME280;10218;42.874;25.320;2023-12-29T10:20:45;97642.31;;;26.99;24.80
20115;BME280;10218;42.874;25.320;2023-12-29T10:23:48;97637.00;;;26.45;25.34
20115;BME280;10218;42.874;25.320;2023-12-29T10:26:12;97636.41;;;27.17;24.91
20115;BME280;10218;42.874;25.320;2023-12-29T10:28:40;97630.72;;;25.64;26.16
20115;BME280;10218;42.874;25.320;2023-12-29T10:31:09;97633.34;;;24.10;28.04
20115;BME280;10218;42.874;25.320;2023-12-29T10:33:41;97631.69;;;25.14;27.45
20115;BME280;10218;42.874;25.320;2023-12-29T10:36:08;97619.94;;;20.38;31.89
20115;BME280;10218;42.874;25.320;2023-12-29T10:38:39;97620.34;;;22.57;29.45
20115;BME280;10218;42.874;25.320;2023-12-29T10:41:15;97631.50;;;23.99;28.26
20115;BME280;10218;42.874;25.320;2023-12-29T10:43:44;97621.59;;;25.37;27.09
20115;BME280;10218;42.874;25.320;2023-12-29T10:46:14;97625.06;;;25.76;26.86
20115;BME280;10218;42.874;25.320;2023-12-29T10:48:41;97618.47;;;23.33;30.28
20115;BME280;10218;42.874;25.320;2023-12-29T10:51:08;97607.69;;;24.11;29.40
20115;BME280;10218;42.874;25.320;2023-12-29T10:53:37;97618.53;;;25.55;28.03
20115;BME280;10218;42.874;25.320;2023-12-29T10:56:17;97606.94;;;25.04;29.13
20115;BME280;10218;42.874;25.320;2023-12-29T10:58:57;97607.09;;;24.09;29.65
20115;BME280;10218;42.874;25.320;2023-12-29T11:01:25;97605.34;;;24.70;29.37
20115;BME280;10218;42.874;25.320;2023-12-29T11:06:39;97602.38;;;24.88;29.87
20115;BME280;10218;42.874;25.320;2023-12-29T11:09:06;97601.63;;;23.48;30.88
20115;BME280;10218;42.874;25.320;2023-12-29T11:11:34;97593.59;;;23.29;31.22
20115;BME280;10218;42.874;25.320;2023-12-29T11:14:03;97582.06;;;24.46;30.71
20115;BME280;10218;42.874;25.320;2023-12-29T11:16:31;97587.91;;;26.44;28.20
20115;BME280;10218;42.874;25.320;2023-12-29T11:19:01;97585.69;;;26.82;27.71
20115;BME280;10218;42.874;25.320;2023-12-29T11:21:31;97589.78;;;24.87;29.48
20115;BME280;10218;42.874;25.320;2023-12-29T11:23:58;97589.94;;;24.97;29.88
20115;BME280;10218;42.874;25.320;2023-12-29T11:26:26;97581.03;;;22.42;32.29
20115;BME280;10218;42.874;25.320;2023-12-29T11:28:54;97570.47;;;24.39;30.82
20115;BME280;10218;42.874;25.320;2023-12-29T11:31:22;97560.84;;;24.03;31.11
20115;BME280;10218;42.874;25.320;2023-12-29T11:33:53;97563.53;;;23.53;31.31
20115;BME280;10218;42.874;25.320;2023-12-29T11:36:30;97551.38;;;23.03;32.54
20115;BME280;10218;42.874;25.320;2023-12-29T11:39:10;97563.00;;;23.27;31.78
20115;BME280;10218;42.874;25.320;2023-12-29T11:42:04;97559.09;;;24.85;30.08
20115;BME280;10218;42.874;25.320;2023-12-29T11:44:33;97556.97;;;23.99;31.45
20115;BME280;10218;42.874;25.320;2023-12-29T11:47:00;97544.34;;;24.43;30.59
20115;BME280;10218;42.874;25.320;2023-12-29T11:49:58;97545.56;;;22.13;32.77
20115;BME280;10218;42.874;25.320;2023-12-29T11:52:36;97538.28;;;22.89;33.05
20115;BME280;10218;42.874;25.320;2023-12-29T11:55:10;97545.25;;;23.53;31.61
20115;BME280;10218;42.874;25.320;2023-12-29T11:57:39;97538.09;;;21.97;33.19
20115;BME280;10218;42.874;25.320;2023-12-29T12:00:08;97531.34;;;23.10;32.44
20115;BME280;10218;42.874;25.320;2023-12-29T12:02:38;97536.69;;;23.78;31.65
20115;BME280;10218;42.874;25.320;2023-12-29T12:05:09;97536.94;;;23.60;31.54
20115;BME280;10218;42.874;25.320;2023-12-29T12:10:31;97527.31;;;24.79;30.10
20115;BME280;10218;42.874;25.320;2023-12-29T12:13:00;97525.13;;;23.71;31.28
20115;BME280;10218;42.874;25.320;2023-12-29T12:18:02;97519.50;;;23.04;32.36
20115;BME280;10218;42.874;25.320;2023-12-29T12:20:35;97517.94;;;24.32;30.21
20115;BME280;10218;42.874;25.320;2023-12-29T12:23:11;97529.91;;;22.21;33.09
20115;BME280;10218;42.874;25.320;2023-12-29T12:25:42;97523.37;;;25.08;30.53
20115;BME280;10218;42.874;25.320;2023-12-29T12:28:14;97522.00;;;24.12;30.93
20115;BME280;10218;42.874;25.320;2023-12-29T12:30:42;97514.28;;;21.40;34.46
20115;BME280;10218;42.874;25.320;2023-12-29T12:33:12;97517.25;;;22.49;33.80
20115;BME280;10218;42.874;25.320;2023-12-29T12:35:41;97510.53;;;25.09;30.46
20115;BME280;10218;42.874;25.320;2023-12-29T12:38:10;97509.78;;;21.87;33.48
20115;BME280;10218;42.874;25.320;2023-12-29T12:40:37;97511.19;;;22.59;33.66
20115;BME280;10218;42.874;25.320;2023-12-29T12:43:07;97519.84;;;20.48;36.27
20115;BME280;10218;42.874;25.320;2023-12-29T12:45:42;97508.66;;;21.53;35.32
20115;BME280;10218;42.874;25.320;2023-12-29T12:48:19;97510.28;;;20.46;36.19
20115;BME280;10218;42.874;25.320;2023-12-29T12:50:48;97505.94;;;21.53;35.12
20115;BME280;10218;42.874;25.320;2023-12-29T12:53:16;97512.53;;;22.96;33.53
20115;BME280;10218;42.874;25.320;2023-12-29T12:55:48;97503.88;;;21.07;35.54
20115;BME280;10218;42.874;25.320;2023-12-29T12:58:19;97513.97;;;19.28;38.95
20115;BME280;10218;42.874;25.320;2023-12-29T13:00:50;97516.16;;;17.90;41.74
20115;BME280;10218;42.874;25.320;2023-12-29T13:03:18;97518.22;;;16.68;44.51
20115;BME280;10218;42.874;25.320;2023-12-29T13:05:46;97520.25;;;16.25;47.83
20115;BME280;10218;42.874;25.320;2023-12-29T13:08:13;97511.94;;;16.55;48.83
20115;BME280;10218;42.874;25.320;2023-12-29T13:10:43;97510.09;;;16.21;50.65
20115;BME280;10218;42.874;25.320;2023-12-29T13:13:11;97504.03;;;15.78;52.57
20115;BME280;10218;42.874;25.320;2023-12-29T13:15:50;97509.66;;;16.17;53.39